sensor_id;sensor_type;location;lat;lon;timestamp;P1;durP1;ratioP1;P2;durP2;ratioP2
42724;SDS011;28369;44.046;23.014;2023-04-19T00:01:52;23.00;;;14.43;;
42724;SDS011;28369;44.046;23.014;2023-04-19T00:04:17;30.73;;;19.70;;
42724;SDS011;28369;44.046;23.014;2023-04-19T00:06:44;41.13;;;21.33;;
42724;SDS011;28369;44.046;23.014;2023-04-19T00:09:11;30.58;;;18.90;;
42724;SDS011;28369;44.046;23.014;2023-04-19T00:11:36;33.85;;;18.15;;
42724;SDS011;28369;44.046;23.014;2023-04-19T00:14:02;32.05;;;18.52;;
42724;SDS011;28369;44.046;23.014;2023-04-19T00:16:27;22.65;;;14.77;;
42724;SDS011;28369;44.046;23.014;2023-04-19T00:18:53;21.00;;;15.18;;
42724;SDS011;28369;44.046;23.014;2023-04-19T00:21:18;21.20;;;13.85;;
42724;SDS011;28369;44.046;23.014;2023-04-19T00:23:44;17.42;;;13.68;;
42724;SDS011;28369;44.046;23.014;2023-04-19T00:26:09;25.15;;;13.75;;
42724;SDS011;28369;44.046;23.014;2023-04-19T00:28:35;21.38;;;14.30;;
42724;SDS011;28369;44.046;23.014;2023-04-19T00:31:01;23.67;;;13.35;;
42724;SDS011;28369;44.046;23.014;2023-04-19T00:33:26;20.88;;;14.23;;
42724;SDS011;28369;44.046;23.014;2023-04-19T00:35:52;21.55;;;14.20;;
42724;SDS011;28369;44.046;23.014;2023-04-19T00:38:17;20.65;;;14.52;;
42724;SDS011;28369;44.046;23.014;2023-04-19T00:40:43;20.40;;;15.15;;
42724;SDS011;28369;44.046;23.014;2023-04-19T00:43:08;22.85;;;14.55;;
42724;SDS011;28369;44.046;23.014;2023-04-19T00:45:34;20.83;;;14.80;;
42724;SDS011;28369;44.046;23.014;2023-04-19T00:48:00;25.35;;;14.57;;
42724;SDS011;28369;44.046;23.014;2023-04-19T00:50:26;22.02;;;14.48;;
42724;SDS011;28369;44.046;23.014;2023-04-19T00:52:52;16.65;;;12.60;;
42724;SDS011;28369;44.046;23.014;2023-04-19T00:55:19;22.35;;;13.75;;
42724;SDS011;28369;44.046;23.014;2023-04-19T00:57:46;17.80;;;12.90;;
42724;SDS011;28369;44.046;23.014;2023-04-19T01:00:12;22.77;;;13.82;;
42724;SDS011;28369;44.046;23.014;2023-04-19T01:02:39;19.38;;;12.48;;
42724;SDS011;28369;44.046;23.014;2023-04-19T01:05:04;19.30;;;13.23;;
42724;SDS011;28369;44.046;23.014;2023-04-19T01:07:31;18.42;;;12.98;;
42724;SDS011;28369;44.046;23.014;2023-04-19T01:09:59;15.07;;;13.23;;
42724;SDS011;28369;44.046;23.014;2023-04-19T01:12:24;16.27;;;12.65;;
42724;SDS011;28369;44.046;23.014;2023-04-19T01:14:50;19.20;;;13.05;;
42724;SDS011;28369;44.046;23.014;2023-04-19T01:17:16;20.17;;;13.35;;
42724;SDS011;28369;44.046;23.014;2023-04-19T01:19:42;16.30;;;13.60;;
42724;SDS011;28369;44.046;23.014;2023-04-19T01:22:08;23.70;;;16.92;;
42724;SDS011;28369;44.046;23.014;2023-04-19T01:24:33;30.92;;;17.40;;
42724;SDS011;28369;44.046;23.014;2023-04-19T01:26:59;26.77;;;17.40;;
42724;SDS011;28369;44.046;23.014;2023-04-19T01:29:26;22.73;;;19.20;;
42724;SDS011;28369;44.046;23.014;2023-04-19T01:31:52;23.80;;;18.67;;
42724;SDS011;28369;44.046;23.014;2023-04-19T01:34:21;27.38;;;19.55;;
42724;SDS011;28369;44.046;23.014;2023-04-19T01:36:49;23.45;;;17.83;;
42724;SDS011;28369;44.046;23.014;2023-04-19T01:39:15;22.80;;;18.63;;
42724;SDS011;28369;44.046;23.014;2023-04-19T01:41:41;30.67;;;19.35;;
42724;SDS011;28369;44.046;23.014;2023-04-19T01:44:06;26.83;;;19.20;;
42724;SDS011;28369;44.046;23.014;2023-04-19T01:46:32;22.50;;;18.02;;
42724;SDS011;28369;44.046;23.014;2023-04-19T01:48:57;22.08;;;15.35;;
42724;SDS011;28369;44.046;23.014;2023-04-19T01:51:22;17.60;;;15.20;;
42724;SDS011;28369;44.046;23.014;2023-04-19T01:53:48;17.67;;;14.27;;
42724;SDS011;28369;44.046;23.014;2023-04-19T01:56:18;21.13;;;15.00;;
42724;SDS011;28369;44.046;23.014;2023-04-19T01:58:45;19.17;;;14.15;;
42724;SDS011;28369;44.046;23.014;2023-04-19T02:01:11;19.48;;;13.75;;
42724;SDS011;28369;44.046;23.014;2023-04-19T02:03:40;22.73;;;14.88;;
42724;SDS011;28369;44.046;23.014;2023-04-19T02:06:09;16.95;;;14.30;;
42724;SDS011;28369;44.046;23.014;2023-04-19T02:08:36;18.70;;;13.68;;
42724;SDS011;28369;44.046;23.014;2023-04-19T02:11:09;20.85;;;13.82;;
42724;SDS011;28369;44.046;23.014;2023-04-19T02:13:36;20.15;;;13.43;;
42724;SDS011;28369;44.046;23.014;2023-04-19T02:16:01;17.33;;;13.48;;
42724;SDS011;28369;44.046;23.014;2023-04-19T02:18:30;21.27;;;14.10;;
42724;SDS011;28369;44.046;23.014;2023-04-19T02:20:56;21.40;;;14.70;;
42724;SDS011;28369;44.046;23.014;2023-04-19T02:23:23;29.58;;;15.32;;
42724;SDS011;28369;44.046;23.014;2023-04-19T02:25:49;21.40;;;14.55;;
42724;SDS011;28369;44.046;23.014;2023-04-19T02:28:15;22.80;;;14.77;;
42724;SDS011;28369;44.046;23.014;2023-04-19T02:30:40;20.80;;;15.02;;
42724;SDS011;28369;44.046;23.014;2023-04-19T02:33:06;20.33;;;13.82;;
42724;SDS011;28369;44.046;23.014;2023-04-19T02:35:31;25.23;;;14.20;;
42724;SDS011;28369;44.046;23.014;2023-04-19T02:37:58;24.23;;;14.13;;
42724;SDS011;28369;44.046;23.014;2023-04-19T02:40:24;24.80;;;14.63;;
42724;SDS011;28369;44.046;23.014;2023-04-19T02:42:51;22.77;;;14.60;;
42724;SDS011;28369;44.046;23.014;2023-04-19T02:45:16;26.02;;;17.63;;
42724;SDS011;28369;44.046;23.014;2023-04-19T02:47:42;26.88;;;18.77;;
42724;SDS011;28369;44.046;23.014;2023-04-19T02:50:07;25.85;;;19.30;;
42724;SDS011;28369;44.046;23.014;2023-04-19T02:52:33;31.85;;;21.02;;
42724;SDS011;28369;44.046;23.014;2023-04-19T02:54:59;44.90;;;24.67;;
42724;SDS011;28369;44.046;23.014;2023-04-19T02:57:24;36.45;;;24.63;;
42724;SDS011;28369;44.046;23.014;2023-04-19T02:59:50;24.92;;;19.20;;
42724;SDS011;28369;44.046;23.014;2023-04-19T03:02:15;25.65;;;17.42;;
42724;SDS011;28369;44.046;23.014;2023-04-19T03:04:41;31.23;;;19.42;;
42724;SDS011;28369;44.046;23.014;2023-04-19T03:07:07;32.60;;;20.40;;
42724;SDS011;28369;44.046;23.014;2023-04-19T03:09:34;32.92;;;21.55;;
42724;SDS011;28369;44.046;23.014;2023-04-19T03:11:59;31.95;;;21.20;;
42724;SDS011;28369;44.046;23.014;2023-04-19T03:14:25;30.60;;;21.58;;
42724;SDS011;28369;44.046;23.014;2023-04-19T03:16:51;31.20;;;19.50;;
42724;SDS011;28369;44.046;23.014;2023-04-19T03:19:16;29.33;;;19.90;;
42724;SDS011;28369;44.046;23.014;2023-04-19T03:21:42;25.83;;;20.33;;
42724;SDS011;28369;44.046;23.014;2023-04-19T03:24:07;30.88;;;21.58;;
42724;SDS011;28369;44.046;23.014;2023-04-19T03:26:33;27.92;;;20.98;;
42724;SDS011;28369;44.046;23.014;2023-04-19T03:28:58;24.63;;;20.38;;
42724;SDS011;28369;44.046;23.014;2023-04-19T03:31:25;22.95;;;18.65;;
42724;SDS011;28369;44.046;23.014;2023-04-19T03:33:50;24.50;;;19.65;;
42724;SDS011;28369;44.046;23.014;2023-04-19T03:36:16;27.30;;;18.80;;
42724;SDS011;28369;44.046;23.014;2023-04-19T03:38:41;26.13;;;18.02;;
42724;SDS011;28369;44.046;23.014;2023-04-19T03:41:21;21.50;;;16.45;;
42724;SDS011;28369;44.046;23.014;2023-04-19T03:43:48;23.63;;;14.98;;
42724;SDS011;28369;44.046;23.014;2023-04-19T03:46:14;20.70;;;14.85;;
42724;SDS011;28369;44.046;23.014;2023-04-19T03:48:39;23.02;;;12.48;;
42724;SDS011;28369;44.046;23.014;2023-04-19T03:51:05;22.65;;;13.23;;
42724;SDS011;28369;44.046;23.014;2023-04-19T03:53:30;20.20;;;12.57;;
42724;SDS011;28369;44.046;23.014;2023-04-19T03:55:56;15.68;;;12.25;;
42724;SDS011;28369;44.046;23.014;2023-04-19T03:58:21;20.55;;;13.13;;
42724;SDS011;28369;44.046;23.014;2023-04-19T04:00:47;22.02;;;14.05;;
42724;SDS011;28369;44.046;23.014;2023-04-19T04:03:12;23.92;;;11.85;;
42724;SDS011;28369;44.046;23.014;2023-04-19T04:05:38;25.35;;;14.27;;
42724;SDS011;28369;44.046;23.014;2023-04-19T04:08:03;27.73;;;20.52;;
42724;SDS011;28369;44.046;23.014;2023-04-19T04:10:29;18.52;;;12.23;;
42724;SDS011;28369;44.046;23.014;2023-04-19T04:12:54;15.95;;;12.98;;
42724;SDS011;28369;44.046;23.014;2023-04-19T04:15:20;16.52;;;11.65;;
42724;SDS011;28369;44.046;23.014;2023-04-19T04:17:45;17.50;;;11.98;;
42724;SDS011;28369;44.046;23.014;2023-04-19T04:20:11;21.75;;;11.82;;
42724;SDS011;28369;44.046;23.014;2023-04-19T04:22:43;15.50;;;11.57;;
42724;SDS011;28369;44.046;23.014;2023-04-19T04:25:15;19.85;;;11.18;;
42724;SDS011;28369;44.046;23.014;2023-04-19T04:27:41;17.98;;;11.63;;
42724;SDS011;28369;44.046;23.014;2023-04-19T04:30:08;21.83;;;11.35;;
42724;SDS011;28369;44.046;23.014;2023-04-19T04:32:34;22.25;;;12.75;;
42724;SDS011;28369;44.046;23.014;2023-04-19T04:35:03;27.27;;;14.90;;
42724;SDS011;28369;44.046;23.014;2023-04-19T04:37:31;25.88;;;13.23;;
42724;SDS011;28369;44.046;23.014;2023-04-19T04:40:00;20.65;;;12.55;;
42724;SDS011;28369;44.046;23.014;2023-04-19T04:42:29;20.63;;;13.07;;
42724;SDS011;28369;44.046;23.014;2023-04-19T04:44:55;22.35;;;14.88;;
42724;SDS011;28369;44.046;23.014;2023-04-19T04:47:22;29.20;;;15.57;;
42724;SDS011;28369;44.046;23.014;2023-04-19T04:49:48;33.72;;;20.73;;
42724;SDS011;28369;44.046;23.014;2023-04-19T04:52:13;37.30;;;21.95;;
42724;SDS011;28369;44.046;23.014;2023-04-19T04:54:39;32.72;;;18.27;;
42724;SDS011;28369;44.046;23.014;2023-04-19T04:57:05;26.08;;;15.68;;
42724;SDS011;28369;44.046;23.014;2023-04-19T04:59:30;21.92;;;15.68;;
42724;SDS011;28369;44.046;23.014;2023-04-19T05:01:56;30.27;;;20.13;;
42724;SDS011;28369;44.046;23.014;2023-04-19T05:04:21;30.75;;;20.55;;
42724;SDS011;28369;44.046;23.014;2023-04-19T05:06:47;25.38;;;17.58;;
42724;SDS011;28369;44.046;23.014;2023-04-19T05:09:12;35.97;;;25.80;;
42724;SDS011;28369;44.046;23.014;2023-04-19T05:11:38;39.30;;;26.92;;
42724;SDS011;28369;44.046;23.014;2023-04-19T05:14:03;55.65;;;31.85;;
42724;SDS011;28369;44.046;23.014;2023-04-19T05:16:29;43.38;;;29.63;;
42724;SDS011;28369;44.046;23.014;2023-04-19T05:18:54;49.97;;;32.03;;
42724;SDS011;28369;44.046;23.014;2023-04-19T05:21:20;48.17;;;31.40;;
42724;SDS011;28369;44.046;23.014;2023-04-19T05:23:46;50.03;;;32.80;;
42724;SDS011;28369;44.046;23.014;2023-04-19T05:26:11;44.67;;;29.45;;
42724;SDS011;28369;44.046;23.014;2023-04-19T05:28:39;36.67;;;22.25;;
42724;SDS011;28369;44.046;23.014;2023-04-19T05:31:06;39.00;;;23.23;;
42724;SDS011;28369;44.046;23.014;2023-04-19T05:33:32;30.73;;;18.92;;
42724;SDS011;28369;44.046;23.014;2023-04-19T05:35:58;21.13;;;16.17;;
42724;SDS011;28369;44.046;23.014;2023-04-19T05:38:23;19.38;;;15.98;;
42724;SDS011;28369;44.046;23.014;2023-04-19T05:40:49;27.10;;;16.67;;
42724;SDS011;28369;44.046;23.014;2023-04-19T05:43:14;23.90;;;16.17;;
42724;SDS011;28369;44.046;23.014;2023-04-19T05:45:40;22.13;;;17.17;;
42724;SDS011;28369;44.046;23.014;2023-04-19T05:48:05;28.77;;;18.25;;
42724;SDS011;28369;44.046;23.014;2023-04-19T05:50:31;23.83;;;17.08;;
42724;SDS011;28369;44.046;23.014;2023-04-19T05:52:56;21.88;;;17.27;;
42724;SDS011;28369;44.046;23.014;2023-04-19T05:55:22;27.33;;;17.83;;
42724;SDS011;28369;44.046;23.014;2023-04-19T05:57:48;26.17;;;19.80;;
42724;SDS011;28369;44.046;23.014;2023-04-19T06:00:13;29.23;;;18.77;;
42724;SDS011;28369;44.046;23.014;2023-04-19T06:02:40;31.30;;;20.58;;
42724;SDS011;28369;44.046;23.014;2023-04-19T06:05:06;28.42;;;20.30;;
42724;SDS011;28369;44.046;23.014;2023-04-19T06:07:31;25.33;;;18.23;;
42724;SDS011;28369;44.046;23.014;2023-04-19T06:09:57;26.52;;;20.45;;
42724;SDS011;28369;44.046;23.014;2023-04-19T06:12:22;27.98;;;18.55;;
42724;SDS011;28369;44.046;23.014;2023-04-19T06:14:48;25.75;;;17.98;;
42724;SDS011;28369;44.046;23.014;2023-04-19T06:17:13;25.20;;;16.48;;
42724;SDS011;28369;44.046;23.014;2023-04-19T06:19:41;22.00;;;15.82;;
42724;SDS011;28369;44.046;23.014;2023-04-19T06:22:06;17.98;;;14.38;;
42724;SDS011;28369;44.046;23.014;2023-04-19T06:27:02;31.67;;;17.00;;
42724;SDS011;28369;44.046;23.014;2023-04-19T06:29:28;25.88;;;14.48;;
42724;SDS011;28369;44.046;23.014;2023-04-19T06:31:54;29.02;;;16.00;;
42724;SDS011;28369;44.046;23.014;2023-04-19T06:34:25;22.85;;;16.25;;
42724;SDS011;28369;44.046;23.014;2023-04-19T06:36:51;20.30;;;13.27;;
42724;SDS011;28369;44.046;23.014;2023-04-19T06:39:16;22.30;;;14.95;;
42724;SDS011;28369;44.046;23.014;2023-04-19T06:44:10;19.45;;;13.48;;
42724;SDS011;28369;44.046;23.014;2023-04-19T06:46:37;24.77;;;13.93;;
42724;SDS011;28369;44.046;23.014;2023-04-19T06:49:03;23.02;;;14.60;;
42724;SDS011;28369;44.046;23.014;2023-04-19T06:51:28;21.27;;;14.93;;
42724;SDS011;28369;44.046;23.014;2023-04-19T06:53:54;25.50;;;15.73;;
42724;SDS011;28369;44.046;23.014;2023-04-19T06:56:37;22.90;;;13.18;;
42724;SDS011;28369;44.046;23.014;2023-04-19T06:59:14;29.20;;;14.60;;
42724;SDS011;28369;44.046;23.014;2023-04-19T07:01:43;21.08;;;12.82;;
42724;SDS011;28369;44.046;23.014;2023-04-19T07:04:09;24.77;;;14.07;;
42724;SDS011;28369;44.046;23.014;2023-04-19T07:06:35;30.00;;;15.88;;
42724;SDS011;28369;44.046;23.014;2023-04-19T07:09:03;21.50;;;14.77;;
42724;SDS011;28369;44.046;23.014;2023-04-19T07:14:59;21.48;;;13.57;;
42724;SDS011;28369;44.046;23.014;2023-04-19T07:27:06;15.82;;;10.70;;
42724;SDS011;28369;44.046;23.014;2023-04-19T07:33:02;19.48;;;12.15;;
42724;SDS011;28369;44.046;23.014;2023-04-19T07:39:10;20.45;;;12.82;;
42724;SDS011;28369;44.046;23.014;2023-04-19T07:41:36;14.20;;;10.05;;
42724;SDS011;28369;44.046;23.014;2023-04-19T07:44:01;19.45;;;11.52;;
42724;SDS011;28369;44.046;23.014;2023-04-19T07:46:27;17.92;;;11.18;;
42724;SDS011;28369;44.046;23.014;2023-04-19T07:48:52;28.25;;;14.88;;
42724;SDS011;28369;44.046;23.014;2023-04-19T07:51:18;15.48;;;9.07;;
42724;SDS011;28369;44.046;23.014;2023-04-19T07:53:43;14.32;;;8.27;;
42724;SDS011;28369;44.046;23.014;2023-04-19T07:56:10;12.20;;;7.45;;
42724;SDS011;28369;44.046;23.014;2023-04-19T08:01:27;12.65;;;6.50;;
42724;SDS011;28369;44.046;23.014;2023-04-19T08:03:53;9.85;;;6.82;;
42724;SDS011;28369;44.046;23.014;2023-04-19T08:06:19;10.38;;;6.97;;
42724;SDS011;28369;44.046;23.014;2023-04-19T08:15:36;27.33;;;18.38;;
42724;SDS011;28369;44.046;23.014;2023-04-19T08:18:01;12.07;;;8.85;;
42724;SDS011;28369;44.046;23.014;2023-04-19T08:20:29;10.55;;;6.50;;
42724;SDS011;28369;44.046;23.014;2023-04-19T08:22:58;7.57;;;6.70;;
42724;SDS011;28369;44.046;23.014;2023-04-19T08:25:24;10.50;;;6.85;;
42724;SDS011;28369;44.046;23.014;2023-04-19T08:27:52;10.75;;;8.27;;
42724;SDS011;28369;44.046;23.014;2023-04-19T08:30:21;11.60;;;8.85;;
42724;SDS011;28369;44.046;23.014;2023-04-19T08:32:47;15.50;;;9.55;;
42724;SDS011;28369;44.046;23.014;2023-04-19T08:35:12;11.75;;;8.02;;
42724;SDS011;28369;44.046;23.014;2023-04-19T08:37:38;8.65;;;5.63;;
42724;SDS011;28369;44.046;23.014;2023-04-19T08:40:03;12.40;;;6.78;;
42724;SDS011;28369;44.046;23.014;2023-04-19T08:42:30;8.98;;;6.95;;
42724;SDS011;28369;44.046;23.014;2023-04-19T08:44:57;8.32;;;6.65;;
42724;SDS011;28369;44.046;23.014;2023-04-19T08:47:26;18.27;;;6.22;;
42724;SDS011;28369;44.046;23.014;2023-04-19T08:49:52;10.48;;;7.78;;
42724;SDS011;28369;44.046;23.014;2023-04-19T08:52:21;42.75;;;25.92;;
42724;SDS011;28369;44.046;23.014;2023-04-19T08:54:48;10.88;;;8.15;;
42724;SDS011;28369;44.046;23.014;2023-04-19T08:57:14;10.70;;;6.20;;
42724;SDS011;28369;44.046;23.014;2023-04-19T08:59:40;8.80;;;5.90;;
42724;SDS011;28369;44.046;23.014;2023-04-19T09:02:09;8.60;;;5.63;;
42724;SDS011;28369;44.046;23.014;2023-04-19T09:04:35;10.65;;;6.18;;
42724;SDS011;28369;44.046;23.014;2023-04-19T09:07:00;14.10;;;6.30;;
42724;SDS011;28369;44.046;23.014;2023-04-19T09:09:27;6.05;;;5.38;;
42724;SDS011;28369;44.046;23.014;2023-04-19T09:11:54;8.02;;;5.75;;
42724;SDS011;28369;44.046;23.014;2023-04-19T09:14:22;8.57;;;5.75;;
42724;SDS011;28369;44.046;23.014;2023-04-19T09:16:49;6.80;;;5.78;;
42724;SDS011;28369;44.046;23.014;2023-04-19T09:19:16;6.90;;;5.75;;
42724;SDS011;28369;44.046;23.014;2023-04-19T09:21:42;9.85;;;6.20;;
42724;SDS011;28369;44.046;23.014;2023-04-19T09:24:08;9.73;;;6.50;;
42724;SDS011;28369;44.046;23.014;2023-04-19T09:26:34;8.60;;;6.60;;
42724;SDS011;28369;44.046;23.014;2023-04-19T09:29:00;12.40;;;9.48;;
42724;SDS011;28369;44.046;23.014;2023-04-19T09:31:29;14.20;;;9.57;;
42724;SDS011;28369;44.046;23.014;2023-04-19T09:34:14;15.02;;;7.00;;
42724;SDS011;28369;44.046;23.014;2023-04-19T09:36:43;8.23;;;6.15;;
42724;SDS011;28369;44.046;23.014;2023-04-19T09:39:09;9.50;;;5.57;;
42724;SDS011;28369;44.046;23.014;2023-04-19T09:41:48;9.68;;;5.00;;
42724;SDS011;28369;44.046;23.014;2023-04-19T09:44:18;7.82;;;5.82;;
42724;SDS011;28369;44.046;23.014;2023-04-19T09:46:44;10.90;;;6.00;;
42724;SDS011;28369;44.046;23.014;2023-04-19T09:51:47;6.45;;;5.75;;
42724;SDS011;28369;44.046;23.014;2023-04-19T09:54:21;5.68;;;4.95;;
42724;SDS011;28369;44.046;23.014;2023-04-19T09:56:48;8.90;;;5.35;;
42724;SDS011;28369;44.046;23.014;2023-04-19T09:59:14;7.97;;;6.18;;
42724;SDS011;28369;44.046;23.014;2023-04-19T10:01:44;6.32;;;5.72;;
42724;SDS011;28369;44.046;23.014;2023-04-19T10:04:10;6.35;;;5.75;;
42724;SDS011;28369;44.046;23.014;2023-04-19T10:06:37;7.55;;;5.22;;
42724;SDS011;28369;44.046;23.014;2023-04-19T10:09:04;10.52;;;5.88;;
42724;SDS011;28369;44.046;23.014;2023-04-19T10:11:31;10.35;;;5.40;;
42724;SDS011;28369;44.046;23.014;2023-04-19T10:14:03;6.30;;;5.53;;
42724;SDS011;28369;44.046;23.014;2023-04-19T10:16:35;5.88;;;5.20;;
42724;SDS011;28369;44.046;23.014;2023-04-19T10:19:06;8.38;;;6.47;;
42724;SDS011;28369;44.046;23.014;2023-04-19T10:21:33;9.60;;;6.65;;
42724;SDS011;28369;44.046;23.014;2023-04-19T10:24:00;8.05;;;6.32;;
42724;SDS011;28369;44.046;23.014;2023-04-19T10:26:26;11.15;;;7.65;;
42724;SDS011;28369;44.046;23.014;2023-04-19T10:28:55;9.27;;;6.97;;
42724;SDS011;28369;44.046;23.014;2023-04-19T10:31:21;10.25;;;8.57;;
42724;SDS011;28369;44.046;23.014;2023-04-19T10:33:50;11.02;;;8.43;;
42724;SDS011;28369;44.046;23.014;2023-04-19T10:36:16;9.35;;;7.40;;
42724;SDS011;28369;44.046;23.014;2023-04-19T10:38:46;9.10;;;8.20;;
42724;SDS011;28369;44.046;23.014;2023-04-19T10:41:13;9.27;;;7.68;;
42724;SDS011;28369;44.046;23.014;2023-04-19T10:43:43;8.43;;;6.93;;
42724;SDS011;28369;44.046;23.014;2023-04-19T10:46:13;8.80;;;7.15;;
42724;SDS011;28369;44.046;23.014;2023-04-19T10:48:48;9.63;;;7.13;;
42724;SDS011;28369;44.046;23.014;2023-04-19T10:51:22;7.47;;;6.50;;
42724;SDS011;28369;44.046;23.014;2023-04-19T10:56:21;10.68;;;7.38;;
42724;SDS011;28369;44.046;23.014;2023-04-19T10:59:29;7.95;;;6.55;;
42724;SDS011;28369;44.046;23.014;2023-04-19T11:01:56;7.38;;;6.38;;
42724;SDS011;28369;44.046;23.014;2023-04-19T11:06:59;10.18;;;5.65;;
42724;SDS011;28369;44.046;23.014;2023-04-19T11:09:30;11.80;;;7.07;;
42724;SDS011;28369;44.046;23.014;2023-04-19T11:12:02;9.73;;;5.72;;
42724;SDS011;28369;44.046;23.014;2023-04-19T11:14:29;13.00;;;5.90;;
42724;SDS011;28369;44.046;23.014;2023-04-19T11:16:57;10.40;;;6.95;;
42724;SDS011;28369;44.046;23.014;2023-04-19T11:19:23;7.57;;;6.80;;
42724;SDS011;28369;44.046;23.014;2023-04-19T11:21:48;9.98;;;6.25;;
42724;SDS011;28369;44.046;23.014;2023-04-19T11:24:14;9.23;;;5.82;;
42724;SDS011;28369;44.046;23.014;2023-04-19T11:26:42;9.18;;;6.35;;
42724;SDS011;28369;44.046;23.014;2023-04-19T11:29:09;6.53;;;5.82;;
42724;SDS011;28369;44.046;23.014;2023-04-19T11:31:34;9.68;;;6.60;;
42724;SDS011;28369;44.046;23.014;2023-04-19T11:34:03;9.43;;;7.28;;
42724;SDS011;28369;44.046;23.014;2023-04-19T11:36:32;11.48;;;6.20;;
42724;SDS011;28369;44.046;23.014;2023-04-19T11:39:00;8.32;;;6.20;;
42724;SDS011;28369;44.046;23.014;2023-04-19T11:41:28;8.52;;;6.47;;
42724;SDS011;28369;44.046;23.014;2023-04-19T11:43:54;12.40;;;6.25;;
42724;SDS011;28369;44.046;23.014;2023-04-19T11:46:19;7.88;;;6.57;;
42724;SDS011;28369;44.046;23.014;2023-04-19T11:48:51;7.45;;;6.00;;
42724;SDS011;28369;44.046;23.014;2023-04-19T11:51:17;6.35;;;5.68;;
42724;SDS011;28369;44.046;23.014;2023-04-19T11:53:43;10.05;;;6.75;;
42724;SDS011;28369;44.046;23.014;2023-04-19T11:56:08;9.20;;;6.53;;
42724;SDS011;28369;44.046;23.014;2023-04-19T11:58:38;6.28;;;5.68;;
42724;SDS011;28369;44.046;23.014;2023-04-19T12:01:12;18.30;;;7.10;;
42724;SDS011;28369;44.046;23.014;2023-04-19T12:03:49;8.93;;;6.40;;
42724;SDS011;28369;44.046;23.014;2023-04-19T12:08:50;10.70;;;6.60;;
42724;SDS011;28369;44.046;23.014;2023-04-19T12:11:18;9.35;;;6.15;;
42724;SDS011;28369;44.046;23.014;2023-04-19T12:13:46;12.75;;;6.15;;
42724;SDS011;28369;44.046;23.014;2023-04-19T12:16:12;7.60;;;5.93;;
42724;SDS011;28369;44.046;23.014;2023-04-19T12:18:47;7.57;;;5.22;;
42724;SDS011;28369;44.046;23.014;2023-04-19T12:21:24;8.48;;;6.07;;
42724;SDS011;28369;44.046;23.014;2023-04-19T12:23:55;9.27;;;6.40;;
42724;SDS011;28369;44.046;23.014;2023-04-19T12:26:21;8.98;;;6.72;;
42724;SDS011;28369;44.046;23.014;2023-04-19T12:28:47;7.32;;;6.45;;
42724;SDS011;28369;44.046;23.014;2023-04-19T12:31:12;14.48;;;6.63;;
42724;SDS011;28369;44.046;23.014;2023-04-19T12:33:38;9.40;;;6.22;;
42724;SDS011;28369;44.046;23.014;2023-04-19T12:36:04;9.50;;;5.43;;
42724;SDS011;28369;44.046;23.014;2023-04-19T12:38:30;7.65;;;5.70;;
42724;SDS011;28369;44.046;23.014;2023-04-19T12:40:55;9.02;;;5.13;;
42724;SDS011;28369;44.046;23.014;2023-04-19T12:43:21;7.72;;;5.22;;
42724;SDS011;28369;44.046;23.014;2023-04-19T12:45:46;7.68;;;5.75;;
42724;SDS011;28369;44.046;23.014;2023-04-19T12:48:12;6.82;;;6.13;;
42724;SDS011;28369;44.046;23.014;2023-04-19T12:50:37;8.00;;;6.50;;
42724;SDS011;28369;44.046;23.014;2023-04-19T12:53:03;8.95;;;6.90;;
42724;SDS011;28369;44.046;23.014;2023-04-19T12:55:28;11.10;;;6.30;;
42724;SDS011;28369;44.046;23.014;2023-04-19T12:57:54;11.18;;;6.20;;
42724;SDS011;28369;44.046;23.014;2023-04-19T13:00:19;8.55;;;4.75;;
42724;SDS011;28369;44.046;23.014;2023-04-19T13:02:45;8.35;;;4.70;;
42724;SDS011;28369;44.046;23.014;2023-04-19T13:05:12;4.70;;;4.22;;
42724;SDS011;28369;44.046;23.014;2023-04-19T13:07:37;7.95;;;4.72;;
42724;SDS011;28369;44.046;23.014;2023-04-19T13:10:03;8.30;;;3.40;;
42724;SDS011;28369;44.046;23.014;2023-04-19T13:12:29;6.55;;;3.50;;
42724;SDS011;28369;44.046;23.014;2023-04-19T13:14:55;7.65;;;4.53;;
42724;SDS011;28369;44.046;23.014;2023-04-19T13:17:21;5.70;;;3.63;;
42724;SDS011;28369;44.046;23.014;2023-04-19T13:19:46;7.22;;;3.70;;
42724;SDS011;28369;44.046;23.014;2023-04-19T13:22:12;6.25;;;4.60;;
42724;SDS011;28369;44.046;23.014;2023-04-19T13:24:37;6.43;;;4.88;;
42724;SDS011;28369;44.046;23.014;2023-04-19T13:27:03;5.82;;;3.78;;
42724;SDS011;28369;44.046;23.014;2023-04-19T13:29:28;8.23;;;4.88;;
42724;SDS011;28369;44.046;23.014;2023-04-19T13:31:54;7.00;;;4.50;;
42724;SDS011;28369;44.046;23.014;2023-04-19T13:34:20;7.95;;;5.43;;
42724;SDS011;28369;44.046;23.014;2023-04-19T13:36:45;5.63;;;5.13;;
42724;SDS011;28369;44.046;23.014;2023-04-19T13:39:11;5.90;;;4.85;;
42724;SDS011;28369;44.046;23.014;2023-04-19T13:41:36;7.88;;;5.00;;
42724;SDS011;28369;44.046;23.014;2023-04-19T13:44:02;8.65;;;5.68;;
42724;SDS011;28369;44.046;23.014;2023-04-19T13:46:28;6.13;;;4.78;;
42724;SDS011;28369;44.046;23.014;2023-04-19T13:48:53;7.88;;;4.82;;
42724;SDS011;28369;44.046;23.014;2023-04-19T13:51:19;6.10;;;4.55;;
42724;SDS011;28369;44.046;23.014;2023-04-19T13:53:44;6.55;;;4.80;;
42724;SDS011;28369;44.046;23.014;2023-04-19T13:56:10;7.05;;;4.45;;
42724;SDS011;28369;44.046;23.014;2023-04-19T13:58:36;5.85;;;4.57;;
42724;SDS011;28369;44.046;23.014;2023-04-19T14:01:01;5.75;;;4.22;;
42724;SDS011;28369;44.046;23.014;2023-04-19T14:03:27;6.68;;;5.18;;
42724;SDS011;28369;44.046;23.014;2023-04-19T14:05:53;6.22;;;3.45;;
42724;SDS011;28369;44.046;23.014;2023-04-19T14:08:18;6.38;;;3.60;;
42724;SDS011;28369;44.046;23.014;2023-04-19T14:10:45;4.65;;;3.40;;
42724;SDS011;28369;44.046;23.014;2023-04-19T14:13:10;5.40;;;3.85;;
42724;SDS011;28369;44.046;23.014;2023-04-19T14:15:36;5.78;;;3.67;;
42724;SDS011;28369;44.046;23.014;2023-04-19T14:18:01;7.13;;;4.43;;
42724;SDS011;28369;44.046;23.014;2023-04-19T14:20:27;5.07;;;4.00;;
42724;SDS011;28369;44.046;23.014;2023-04-19T14:22:52;4.60;;;3.80;;
42724;SDS011;28369;44.046;23.014;2023-04-19T14:25:20;7.45;;;4.22;;
42724;SDS011;28369;44.046;23.014;2023-04-19T14:27:45;6.90;;;3.50;;
42724;SDS011;28369;44.046;23.014;2023-04-19T14:30:11;8.10;;;3.97;;
42724;SDS011;28369;44.046;23.014;2023-04-19T14:32:37;6.10;;;4.97;;
42724;SDS011;28369;44.046;23.014;2023-04-19T14:35:02;4.93;;;3.40;;
42724;SDS011;28369;44.046;23.014;2023-04-19T14:37:28;7.82;;;6.38;;
42724;SDS011;28369;44.046;23.014;2023-04-19T14:39:54;7.25;;;4.72;;
42724;SDS011;28369;44.046;23.014;2023-04-19T14:42:19;8.75;;;6.13;;
42724;SDS011;28369;44.046;23.014;2023-04-19T14:44:45;3.60;;;3.30;;
42724;SDS011;28369;44.046;23.014;2023-04-19T14:47:11;4.20;;;3.38;;
42724;SDS011;28369;44.046;23.014;2023-04-19T14:49:37;4.95;;;3.50;;
42724;SDS011;28369;44.046;23.014;2023-04-19T14:52:04;6.70;;;3.50;;
42724;SDS011;28369;44.046;23.014;2023-04-19T14:54:30;3.72;;;3.42;;
42724;SDS011;28369;44.046;23.014;2023-04-19T14:56:55;7.75;;;3.63;;
42724;SDS011;28369;44.046;23.014;2023-04-19T14:59:21;5.65;;;4.40;;
42724;SDS011;28369;44.046;23.014;2023-04-19T15:01:46;43.20;;;27.08;;